Time;durP1;ratioP1;P1;durP2;ratioP2;P2;SDS_P1;SDS_P2;PMS_P1;PMS_P2;Temp;Humidity;BMP_temperature;BMP_pressure;BME280_temperature;BME280_humidity;BME280_pressure;Samples;Min_cycle;Max_cycle;Signal;HPM_P1;HPM_P2
2023/03/23 00:01:30;;;;;;;6.30;3.03;;;12.20;1.00;;;;;;4964956;28;20280;-67
2023/03/23 00:03:57;;;;;;;5.07;2.97;;;12.30;1.00;;;;;;4973206;28;20246;-67
2023/03/23 00:06:27;;;;;;;4.20;2.67;;;12.30;1.00;;;;;;4976012;28;20829;-68
2023/03/23 00:08:59;;;;;;;4.47;2.87;;;12.30;1.00;;;;;;5002749;28;20220;-67
2023/03/23 00:11:30;;;;;;;5.40;3.07;;;12.30;1.00;;;;;;4992790;28;20195;-68
2023/03/23 00:14:00;;;;;;;5.97;2.83;;;12.30;1.00;;;;;;4982886;28;20281;-70
2023/03/23 00:16:31;;;;;;;4.97;2.90;;;12.30;1.00;;;;;;5000238;28;20186;-68
2023/03/23 00:19:15;;;;;;;4.07;2.80;;;12.30;1.00;;;;;;5000272;28;20246;-67
2023/03/23 00:21:42;;;;;;;9.77;3.17;;;12.30;1.00;;;;;;5000734;28;20200;-67
2023/03/23 00:24:17;;;;;;;5.03;2.93;;;12.20;1.00;;;;;;4976279;28;20330;-68
2023/03/23 00:26:45;;;;;;;6.83;2.63;;;12.20;1.00;;;;;;4998484;28;20188;-68
2023/03/23 00:29:21;;;;;;;4.47;2.47;;;12.20;1.00;;;;;;4969037;28;20335;-68
2023/03/23 00:31:50;;;;;;;5.13;3.07;;;12.20;1.00;;;;;;5001645;28;20189;-68
2023/03/23 00:34:19;;;;;;;4.00;2.57;;;12.20;1.00;;;;;;4999206;28;20195;-68
2023/03/23 00:36:47;;;;;;;3.83;2.40;;;12.20;1.00;;;;;;4984377;28;20185;-68
2023/03/23 00:39:15;;;;;;;3.93;2.40;;;12.20;1.00;;;;;;4982453;28;20204;-68
2023/03/23 00:41:42;;;;;;;2.63;2.40;;;12.20;1.00;;;;;;4982747;28;20530;-67
2023/03/23 00:44:10;;;;;;;4.77;2.70;;;12.20;1.00;;;;;;4984899;28;20200;-67
2023/03/23 00:46:44;;;;;;;4.33;2.70;;;12.20;1.00;;;;;;5000382;28;20479;-67
2023/03/23 00:49:15;;;;;;;5.80;3.20;;;12.20;1.00;;;;;;4985584;28;20213;-67
2023/03/23 00:51:42;;;;;;;3.70;2.83;;;12.10;1.00;;;;;;4983528;28;20193;-67
2023/03/23 00:54:08;;;;;;;3.17;2.67;;;12.20;1.00;;;;;;4986373;28;20190;-67
2023/03/23 00:56:35;;;;;;;3.73;2.93;;;12.20;1.00;;;;;;4974991;28;20224;-67
2023/03/23 00:59:01;;;;;;;3.77;2.43;;;12.20;1.00;;;;;;4983489;28;20200;-64
2023/03/23 01:01:28;;;;;;;3.60;2.60;;;12.10;1.00;;;;;;4982015;28;20280;-68
2023/03/23 01:04:00;;;;;;;4.17;2.73;;;12.10;1.00;;;;;;4983827;28;20701;-68
2023/03/23 01:06:31;;;;;;;7.23;2.67;;;12.10;1.00;;;;;;4975540;28;20208;-66
2023/03/23 01:08:58;;;;;;;4.47;2.57;;;12.10;1.00;;;;;;4984077;28;20576;-67
2023/03/23 01:11:24;;;;;;;4.10;2.80;;;12.10;1.00;;;;;;4998731;28;20193;-68
2023/03/23 01:13:51;;;;;;;3.50;2.70;;;12.10;1.00;;;;;;4983331;28;20806;-67
2023/03/23 01:16:20;;;;;;;3.73;2.27;;;12.20;1.00;;;;;;4999872;28;20197;-67
2023/03/23 01:18:46;;;;;;;3.93;2.30;;;12.10;1.00;;;;;;4983530;28;20544;-68
2023/03/23 01:21:15;;;;;;;5.90;2.80;;;12.20;1.00;;;;;;4977489;28;20186;-68
2023/03/23 01:23:42;;;;;;;5.93;3.93;;;12.10;1.00;;;;;;4982055;28;20194;-68
2023/03/23 01:26:12;;;;;;;6.13;2.43;;;12.10;1.00;;;;;;4973603;28;20190;-68
2023/03/23 01:28:39;;;;;;;6.83;2.97;;;12.10;1.00;;;;;;4982192;28;20219;-68
2023/03/23 01:31:08;;;;;;;4.97;2.80;;;12.10;1.00;;;;;;4975286;28;20196;-68
2023/03/23 01:33:35;;;;;;;4.80;2.53;;;12.10;1.00;;;;;;4982975;28;20200;-71
2023/03/23 01:36:11;;;;;;;4.97;2.77;;;12.10;1.00;;;;;;5007679;28;20188;-64
2023/03/23 01:38:38;;;;;;;5.43;2.63;;;12.10;1.00;;;;;;4983047;28;20208;-66
2023/03/23 01:41:05;;;;;;;6.37;2.77;;;12.10;1.00;;;;;;4980671;28;20668;-65
2023/03/23 01:43:31;;;;;;;5.00;2.30;;;12.10;1.00;;;;;;4966390;28;20204;-64
2023/03/23 01:45:57;;;;;;;4.90;2.73;;;12.10;1.00;;;;;;4982794;28;20540;-68
2023/03/23 01:48:26;;;;;;;5.80;2.90;;;12.00;1.00;;;;;;4983723;28;20228;-67
2023/03/23 01:51:06;;;;;;;5.27;3.03;;;12.10;1.00;;;;;;4990557;28;20202;-67
2023/03/23 01:53:40;;;;;;;3.80;2.60;;;12.10;1.00;;;;;;4982977;28;20296;-67
2023/03/23 01:56:11;;;;;;;4.13;2.30;;;12.10;1.00;;;;;;4990789;28;20263;-68
2023/03/23 01:58:38;;;;;;;4.73;2.20;;;12.10;1.00;;;;;;4982539;28;20228;-66
2023/03/23 02:01:11;;;;;;;3.83;2.30;;;12.10;1.00;;;;;;5023152;22;20270;-66
2023/03/23 02:03:41;;;;;;;5.77;2.87;;;12.20;1.00;;;;;;5028451;28;20550;-67
2023/03/23 02:06:07;;;;;;;6.37;2.80;;;12.10;1.00;;;;;;5029677;28;20269;-66
2023/03/23 02:08:44;;;;;;;2.90;2.17;;;12.00;1.00;;;;;;5023072;28;20203;-67
2023/03/23 02:11:18;;;;;;;5.07;2.40;;;12.10;1.00;;;;;;5004218;28;20191;-66
2023/03/23 02:13:45;;;;;;;2.93;2.00;;;11.90;1.00;;;;;;5044462;28;20188;-66
2023/03/23 02:16:37;;;;;;;4.43;2.50;;;11.80;1.00;;;;;;5038030;28;20181;-66
2023/03/23 02:19:16;;;;;;;3.83;2.17;;;11.80;37.90;;;;;;5021385;28;20564;-65
2023/03/23 02:21:54;;;;;;;4.33;2.20;;;11.80;10.30;;;;;;5036944;28;20222;-65
2023/03/23 02:24:29;;;;;;;3.50;2.00;;;11.90;1.00;;;;;;5020573;28;20647;-65
2023/03/23 02:27:36;;;;;;;4.10;2.10;;;11.90;1.00;;;;;;5028814;28;20250;-67
2023/03/23 02:30:24;;;;;;;3.50;2.10;;;11.90;1.00;;;;;;5031842;28;20602;-68
2023/03/23 02:33:09;;;;;;;7.90;6.37;;;11.90;1.00;;;;;;5028361;28;20195;-67
2023/03/23 02:35:43;;;;;;;3.20;2.20;;;11.90;1.00;;;;;;5028806;28;20274;-67
2023/03/23 02:38:15;;;;;;;3.80;3.03;;;12.00;1.00;;;;;;5021251;28;20206;-67
2023/03/23 02:40:46;;;;;;;5.00;2.50;;;11.90;1.00;;;;;;5004703;28;20574;-68
2023/03/23 02:43:19;;;;;;;5.60;2.20;;;11.90;1.00;;;;;;5026999;28;20739;-66
2023/03/23 02:45:46;;;;;;;1.67;1.57;;;11.80;1.00;;;;;;5020720;28;20184;-68
2023/03/23 02:48:15;;;;;;;3.80;1.80;;;11.80;1.00;;;;;;5037763;28;20250;-68
2023/03/23 02:50:46;;;;;;;3.27;2.00;;;11.80;1.00;;;;;;5012120;28;20326;-68
2023/03/23 02:53:15;;;;;;;4.57;2.00;;;11.80;1.00;;;;;;5026736;28;20237;-69
2023/03/23 02:55:43;;;;;;;5.60;1.67;;;11.80;1.00;;;;;;5037681;28;20215;-68
2023/03/23 02:58:15;;;;;;;2.57;1.87;;;11.80;1.00;;;;;;5020084;28;20463;-68
2023/03/23 03:00:42;;;;;;;5.33;2.10;;;11.80;1.00;;;;;;5028510;28;20200;-67
2023/03/23 03:03:15;;;;;;;3.47;2.07;;;11.90;1.00;;;;;;5023191;28;20194;-67
2023/03/23 03:06:01;;;;;;;3.53;2.27;;;11.90;1.00;;;;;;5056868;28;20241;-67
2023/03/23 03:08:53;;;;;;;2.60;2.17;;;11.80;1.00;;;;;;5040556;28;20223;-68
2023/03/23 03:11:25;;;;;;;2.57;2.10;;;11.80;1.00;;;;;;5043969;28;20199;-68
2023/03/23 03:14:04;;;;;;;3.77;2.20;;;11.70;15.30;;;;;;5030393;28;20240;-68
2023/03/23 03:16:40;;;;;;;5.07;2.30;;;11.70;50.90;;;;;;5040225;28;20191;-68
2023/03/23 03:19:35;;;;;;;4.30;2.17;;;11.60;53.50;;;;;;5065433;28;20226;-67
2023/03/23 03:22:02;;;;;;;2.30;2.10;;;11.50;90.00;;;;;;5028455;28;20207;-69
2023/03/23 03:24:38;;;;;;;2.87;2.10;;;11.60;91.10;;;;;;5043077;28;20230;-69
2023/03/23 03:27:14;;;;;;;2.57;2.00;;;11.70;38.00;;;;;;5040733;28;20187;-68
2023/03/23 03:30:03;;;;;;;3.23;2.10;;;11.60;31.70;;;;;;5056919;28;20297;-67
2023/03/23 03:32:38;;;;;;;2.67;1.87;;;11.70;13.30;;;;;;5058194;28;20649;-68
2023/03/23 03:35:05;;;;;;;2.47;2.10;;;11.70;21.10;;;;;;5057702;28;20211;-68
2023/03/23 03:37:39;;;;;;;4.00;2.13;;;11.70;8.40;;;;;;5065151;28;20571;-68
2023/03/23 03:40:11;;;;;;;2.17;1.90;;;11.70;8.90;;;;;;5047905;28;20183;-67
2023/03/23 03:42:41;;;;;;;2.93;2.00;;;11.70;9.00;;;;;;5040322;28;20187;-68
2023/03/23 03:45:10;;;;;;;2.07;1.80;;;11.70;6.90;;;;;;5041240;28;20285;-68
2023/03/23 03:47:36;;;;;;;3.63;1.70;;;11.70;25.30;;;;;;5047895;28;20183;-67
2023/03/23 03:50:03;;;;;;;2.77;1.80;;;11.60;12.20;;;;;;5040882;28;20219;-66
2023/03/23 03:52:31;;;;;;;3.30;2.20;;;11.70;5.30;;;;;;5047378;28;20191;-68
2023/03/23 03:54:58;;;;;;;2.23;2.03;;;11.70;11.70;;;;;;5040146;28;20226;-68
2023/03/23 03:57:24;;;;;;;3.47;2.07;;;11.70;1.00;;;;;;5023581;28;20183;-67
2023/03/23 04:00:13;;;;;;;3.63;2.10;;;11.70;1.00;;;;;;5057168;28;20310;-66
2023/03/23 04:02:54;;;;;;;2.27;1.97;;;11.70;1.00;;;;;;5056257;28;20325;-66
2023/03/23 04:05:36;;;;;;;3.40;1.80;;;11.70;1.00;;;;;;5041882;28;20191;-66
2023/03/23 04:08:03;;;;;;;2.30;2.07;;;11.70;1.00;;;;;;5047421;28;20298;-65
2023/03/23 04:10:31;;;;;;;3.13;2.10;;;11.70;1.00;;;;;;5047365;28;20261;-68
2023/03/23 04:12:58;;;;;;;3.50;2.20;;;11.80;1.00;;;;;;5039368;28;20191;-67
2023/03/23 04:15:48;;;;;;;2.93;1.90;;;11.80;1.00;;;;;;5029572;28;20220;-67
2023/03/23 04:18:17;;;;;;;4.33;2.00;;;11.80;1.00;;;;;;5047429;28;20626;-65
2023/03/23 04:20:47;;;;;;;3.20;1.90;;;11.80;1.00;;;;;;5049520;28;20722;-65
2023/03/23 04:23:19;;;;;;;3.20;1.93;;;11.80;1.00;;;;;;5059613;28;21075;-67
2023/03/23 04:25:47;;;;;;;2.70;1.93;;;11.80;1.00;;;;;;5051523;28;20187;-67
2023/03/23 04:28:16;;;;;;;3.10;2.07;;;11.90;1.00;;;;;;5043894;28;20211;-65
2023/03/23 04:30:55;;;;;;;2.23;1.90;;;11.80;1.00;;;;;;5052566;28;20365;-67
2023/03/23 04:33:26;;;;;;;3.20;2.23;;;11.80;1.00;;;;;;5044305;28;20185;-67
2023/03/23 04:35:55;;;;;;;3.83;2.10;;;11.90;1.00;;;;;;5043892;28;20249;-65
2023/03/23 04:38:32;;;;;;;1.80;1.57;;;11.90;1.00;;;;;;5061667;28;20187;-64
2023/03/23 04:41:04;;;;;;;3.40;1.73;;;11.90;1.00;;;;;;5042559;28;20198;-65
2023/03/23 04:43:43;;;;;;;2.07;1.70;;;11.90;1.00;;;;;;5059938;28;20182;-64
2023/03/23 04:46:21;;;;;;;4.10;2.47;;;12.00;1.00;;;;;;5030499;28;20198;-65
2023/03/23 04:48:49;;;;;;;2.60;2.00;;;12.10;1.00;;;;;;5042971;28;20726;-67
2023/03/23 04:51:24;;;;;;;3.40;1.70;;;12.00;1.00;;;;;;5045482;28;20661;-67
2023/03/23 04:53:52;;;;;;;2.97;2.23;;;12.00;1.00;;;;;;5042849;28;21036;-68
2023/03/23 04:56:19;;;;;;;3.93;3.13;;;12.00;1.00;;;;;;5048734;28;20200;-68
2023/03/23 04:58:46;;;;;;;4.07;2.60;;;12.00;1.00;;;;;;5050678;28;20203;-66
2023/03/23 05:01:37;;;;;;;4.53;2.40;;;12.00;1.00;;;;;;5052707;28;20618;-65
2023/03/23 05:04:17;;;;;;;5.77;3.30;;;12.00;1.00;;;;;;5059757;28;20195;-67
2023/03/23 05:06:55;;;;;;;3.80;2.53;;;12.00;1.00;;;;;;5044497;28;20198;-65
2023/03/23 05:09:25;;;;;;;4.97;3.40;;;12.00;1.00;;;;;;5052074;28;20298;-66
2023/03/23 05:11:51;;;;;;;2.50;2.07;;;11.90;1.00;;;;;;5027053;28;20198;-67
2023/03/23 05:14:17;;;;;;;4.70;2.37;;;11.90;1.00;;;;;;5042990;28;20634;-66
2023/03/23 05:16:48;;;;;;;5.83;3.23;;;11.90;1.00;;;;;;5042828;28;20270;-67
2023/03/23 05:19:18;;;;;;;7.07;4.17;;;11.90;1.00;;;;;;5043699;28;20183;-69
2023/03/23 05:21:44;;;;;;;3.07;2.47;;;11.90;1.00;;;;;;5024275;28;20199;-67
2023/03/23 05:24:10;;;;;;;3.33;1.83;;;12.00;1.00;;;;;;5061189;28;20655;-67
2023/03/23 05:26:37;;;;;;;4.37;2.90;;;12.10;1.00;;;;;;5042146;28;20573;-68
2023/03/23 05:29:08;;;;;;;2.40;2.20;;;12.00;1.00;;;;;;5043126;28;20796;-67
2023/03/23 05:31:41;;;;;;;3.90;2.00;;;12.00;1.00;;;;;;5043690;28;20194;-68
2023/03/23 05:34:07;;;;;;;2.50;1.67;;;12.00;1.00;;;;;;5042056;28;20187;-65
2023/03/23 05:36:47;;;;;;;2.30;1.73;;;12.00;1.00;;;;;;5046104;28;20560;-65
2023/03/23 05:39:32;;;;;;;2.47;2.17;;;12.00;1.00;;;;;;5060995;28;20199;-67
2023/03/23 05:42:17;;;;;;;2.60;2.00;;;12.00;1.00;;;;;;5060187;28;20347;-65
2023/03/23 05:44:50;;;;;;;2.57;1.70;;;12.00;1.00;;;;;;5048656;28;20553;-66
2023/03/23 05:47:16;;;;;;;5.33;2.23;;;12.00;1.00;;;;;;5031273;28;20647;-65
2023/03/23 05:49:49;;;;;;;2.77;1.90;;;12.00;1.00;;;;;;5041741;28;20219;-65
2023/03/23 05:52:19;;;;;;;2.70;1.97;;;12.00;1.00;;;;;;5025626;28;20565;-66
2023/03/23 05:54:46;;;;;;;3.53;2.23;;;12.00;1.00;;;;;;5045938;28;20317;-65
2023/03/23 05:57:12;;;;;;;2.53;1.70;;;12.10;1.00;;;;;;5040754;28;20901;-65
2023/03/23 05:59:44;;;;;;;2.77;1.67;;;12.10;1.00;;;;;;5026086;28;20237;-66
2023/03/23 06:02:16;;;;;;;3.30;1.83;;;12.10;1.00;;;;;;5048848;28;20634;-66
2023/03/23 06:04:42;;;;;;;3.10;1.90;;;12.20;1.00;;;;;;5040444;28;20680;-65
2023/03/23 06:07:18;;;;;;;2.00;1.77;;;12.20;1.00;;;;;;5025771;28;20392;-65
2023/03/23 06:09:52;;;;;;;2.27;1.73;;;12.20;1.00;;;;;;5043184;28;20206;-65
2023/03/23 06:12:24;;;;;;;3.33;1.90;;;12.20;1.00;;;;;;5059434;28;20383;-65
2023/03/23 06:15:10;;;;;;;2.23;2.03;;;12.10;1.00;;;;;;5042155;28;20243;-66
2023/03/23 06:18:02;;;;;;;2.53;1.90;;;12.10;1.00;;;;;;5043965;28;20347;-68
2023/03/23 06:21:00;;;;;;;3.67;2.43;;;12.20;1.00;;;;;;5045050;28;20213;-66
2023/03/23 06:23:47;;;;;;;2.97;1.77;;;12.20;1.00;;;;;;5058603;28;20194;-67
2023/03/23 06:26:18;;;;;;;2.90;1.90;;;12.30;1.00;;;;;;5043253;28;20602;-66
2023/03/23 06:28:47;;;;;;;3.40;1.93;;;12.30;1.00;;;;;;5039229;28;20207;-66
2023/03/23 06:31:14;;;;;;;2.97;2.20;;;12.30;1.00;;;;;;5042574;28;20194;-65
2023/03/23 06:33:41;;;;;;;3.50;3.20;;;12.40;1.00;;;;;;5026386;28;20226;-64
2023/03/23 06:36:26;;;;;;;3.80;2.10;;;12.40;1.00;;;;;;5055035;28;20716;-65
2023/03/23 06:39:22;;;;;;;4.30;2.07;;;12.40;1.00;;;;;;5038954;28;20687;-66
2023/03/23 06:42:12;;;;;;;4.70;1.80;;;12.40;1.00;;;;;;5042671;28;20541;-66
2023/03/23 06:44:45;;;;;;;12.10;7.37;;;12.30;1.00;;;;;;5026524;28;20191;-65
2023/03/23 06:47:12;;;;;;;6.33;1.80;;;12.30;1.00;;;;;;5040690;28;20553;-67
2023/03/23 06:49:45;;;;;;;3.27;2.20;;;12.30;1.00;;;;;;5064653;28;20717;-65
2023/03/23 06:52:26;;;;;;;2.93;2.30;;;12.30;1.00;;;;;;5043151;28;20236;-65
2023/03/23 06:54:53;;;;;;;2.77;2.20;;;12.30;1.00;;;;;;5041060;28;20275;-66
2023/03/23 06:57:20;;;;;;;3.30;2.60;;;12.30;1.00;;;;;;5022428;28;20650;-65
2023/03/23 06:59:48;;;;;;;2.73;2.17;;;12.30;1.00;;;;;;5039825;28;20202;-65
2023/03/23 07:02:15;;;;;;;3.47;2.20;;;12.30;1.00;;;;;;5040404;28;20235;-64
2023/03/23 07:04:43;;;;;;;3.27;2.40;;;12.30;1.00;;;;;;5024142;28;20191;-64
2023/03/23 07:07:18;;;;;;;4.73;2.10;;;12.30;1.00;;;;;;5025786;28;20185;-65
2023/03/23 07:10:06;;;;;;;6.87;4.33;;;12.30;1.00;;;;;;5057243;28;20698;-65
2023/03/23 07:12:33;;;;;;;5.77;3.73;;;12.40;1.00;;;;;;5046053;28;20193;-65
2023/03/23 07:14:59;;;;;;;4.37;3.00;;;12.50;1.00;;;;;;5058865;28;20192;-65
2023/03/23 07:17:25;;;;;;;3.17;2.30;;;12.60;1.00;;;;;;5040909;28;20188;-65
2023/03/23 07:20:05;;;;;;;7.00;2.77;;;12.50;1.00;;;;;;5028390;28;20202;-66
2023/03/23 07:22:35;;;;;;;6.40;2.87;;;12.70;1.00;;;;;;5045580;28;20197;-66
2023/03/23 07:25:10;;;;;;;7.13;4.50;;;12.70;1.00;;;;;;5035168;28;20195;-66
2023/03/23 07:27:51;;;;;;;5.63;2.23;;;12.80;1.00;;;;;;5048735;28;20226;-65
2023/03/23 07:30:17;;;;;;;6.10;4.07;;;13.00;1.00;;;;;;5027478;28;20301;-66
2023/03/23 07:32:43;;;;;;;5.50;2.77;;;13.10;1.00;;;;;;5032779;28;20277;-65
2023/03/23 07:35:10;;;;;;;11.13;7.20;;;13.20;1.00;;;;;;5039742;28;20750;-70
2023/03/23 07:37:56;;;;;;;4.33;2.40;;;13.30;1.00;;;;;;5045257;28;20197;-66
2023/03/23 07:40:22;;;;;;;4.80;2.33;;;13.30;1.00;;;;;;5025318;28;20287;-67
2023/03/23 07:42:53;;;;;;;3.23;2.40;;;13.30;1.00;;;;;;5039501;28;20670;-67
2023/03/23 07:45:29;;;;;;;6.23;3.13;;;13.40;1.00;;;;;;5048140;28;20191;-66
2023/03/23 07:47:56;;;;;;;6.20;4.45;;;13.50;1.00;;;;;;5023415;28;20650;-66
2023/03/23 07:50:24;;;;;;;7.22;3.83;;;13.70;1.00;;;;;;5056425;28;20203;-67
2023/03/23 07:52:55;;;;;;;4.50;3.08;;;13.60;1.00;;;;;;5040159;28;20319;-67
2023/03/23 07:55:24;;;;;;;8.60;4.40;;;13.50;1.00;;;;;;5024020;28;20191;-66
2023/03/23 07:57:59;;;;;;;8.65;3.92;;;13.50;1.00;;;;;;5059258;28;20183;-67
2023/03/23 08:00:26;;;;;;;5.87;3.10;;;13.60;1.00;;;;;;5027079;28;20260;-65
2023/03/23 08:03:00;;;;;;;8.87;4.60;;;13.80;1.00;;;;;;5044278;28;20219;-66
2023/03/23 08:05:29;;;;;;;8.73;4.43;;;13.80;1.00;;;;;;5062248;28;20583;-65
2023/03/23 08:08:13;;;;;;;6.03;2.97;;;13.90;1.00;;;;;;5047341;28;20184;-66
2023/03/23 08:10:39;;;;;;;8.88;3.60;;;13.80;1.00;;;;;;5059223;28;20202;-67
2023/03/23 08:13:29;;;;;;;10.30;2.75;;;13.70;1.00;;;;;;5043287;28;20204;-66
2023/03/23 08:16:13;;;;;;;8.13;3.95;;;13.60;1.00;;;;;;5046553;28;20190;-66
2023/03/23 08:18:57;;;;;;;8.07;3.27;;;13.60;1.00;;;;;;5058777;28;20249;-67
2023/03/23 08:21:36;;;;;;;4.60;2.63;;;13.60;1.00;;;;;;5029365;28;20182;-66
2023/03/23 08:24:16;;;;;;;6.28;2.72;;;13.60;1.00;;;;;;5060819;28;20201;-65
2023/03/23 08:26:53;;;;;;;5.77;2.70;;;13.80;1.00;;;;;;5046132;28;20193;-65
2023/03/23 08:29:19;;;;;;;6.53;3.00;;;13.90;1.00;;;;;;5059634;28;20330;-64
2023/03/23 08:32:02;;;;;;;9.70;3.27;;;14.00;1.00;;;;;;5059011;28;20238;-65
2023/03/23 08:34:52;;;;;;;7.00;2.60;;;14.00;1.00;;;;;;5056532;28;20191;-65
2023/03/23 08:37:54;;;;;;;5.43;2.37;;;14.00;1.00;;;;;;5005529;28;20203;-68
2023/03/23 08:40:22;;;;;;;5.30;2.30;;;14.00;1.00;;;;;;5049593;28;20676;-65
2023/03/23 08:42:57;;;;;;;5.22;2.35;;;14.10;1.00;;;;;;5050390;28;20182;-66
2023/03/23 08:45:42;;;;;;;4.60;2.40;;;14.20;1.00;;;;;;5060320;28;20756;-65
2023/03/23 08:48:26;;;;;;;6.23;2.50;;;14.40;1.00;;;;;;5049488;28;20221;-65
2023/03/23 08:51:13;;;;;;;4.40;2.28;;;14.20;1.00;;;;;;5036335;28;20651;-65
2023/03/23 08:54:11;;;;;;;4.28;2.58;;;14.10;1.00;;;;;;5049484;28;20533;-65
2023/03/23 08:56:58;;;;;;;5.57;2.40;;;14.20;1.00;;;;;;5043917;28;20182;-65
2023/03/23 08:59:59;;;;;;;5.35;2.17;;;14.30;1.00;;;;;;5046709;28;20207;-70
2023/03/23 09:02:42;;;;;;;5.22;2.13;;;14.50;1.00;;;;;;5045348;28;20279;-65
2023/03/23 09:05:24;;;;;;;4.25;2.00;;;15.10;1.00;;;;;;5050370;28;20261;-65
2023/03/23 09:08:03;;;;;;;5.00;2.35;;;15.10;1.00;;;;;;5061753;28;20250;-65
2023/03/23 09:10:30;;;;;;;4.35;2.83;;;15.00;1.00;;;;;;5035317;28;20198;-65
2023/03/23 09:12:57;;;;;;;5.30;2.85;;;14.90;1.00;;;;;;5065912;28;20190;-65
2023/03/23 09:15:23;;;;;;;6.90;2.70;;;14.90;1.00;;;;;;5040052;28;20737;-66
2023/03/23 09:17:51;;;;;;;3.22;2.03;;;14.90;1.00;;;;;;5066197;28;20257;-66
2023/03/23 09:20:21;;;;;;;10.85;4.03;;;14.90;1.00;;;;;;5068523;28;20547;-65
2023/03/23 09:22:51;;;;;;;10.13;4.13;;;14.80;1.00;;;;;;5069832;28;20250;-64
2023/03/23 09:25:21;;;;;;;8.20;3.65;;;15.00;1.00;;;;;;5049922;28;20204;-65
2023/03/23 09:27:56;;;;;;;6.35;3.78;;;15.10;1.00;;;;;;5072935;28;20202;-64
2023/03/23 09:30:27;;;;;;;5.78;2.60;;;15.10;1.00;;;;;;5052580;28;20335;-65
2023/03/23 09:32:54;;;;;;;6.63;2.40;;;15.30;1.00;;;;;;5044440;28;20191;-66
2023/03/23 09:35:22;;;;;;;6.10;2.60;;;15.30;1.00;;;;;;5062994;28;20190;-65
2023/03/23 09:37:50;;;;;;;7.68;2.40;;;15.20;1.00;;;;;;5059318;28;20251;-65
2023/03/23 09:40:21;;;;;;;4.85;2.38;;;15.00;1.00;;;;;;5060153;28;20282;-66
2023/03/23 09:42:54;;;;;;;7.70;2.20;;;15.00;1.00;;;;;;5042537;28;20666;-67
2023/03/23 09:45:43;;;;;;;6.00;2.35;;;14.90;1.00;;;;;;5042807;28;20720;-66
2023/03/23 09:48:32;;;;;;;3.97;2.20;;;15.00;1.00;;;;;;5057671;28;20198;-66
2023/03/23 09:51:25;;;;;;;4.38;2.33;;;15.10;1.00;;;;;;5057606;28;20560;-65
2023/03/23 09:53:57;;;;;;;4.75;2.00;;;14.70;1.00;;;;;;5058104;28;21088;-66
2023/03/23 09:56:27;;;;;;;4.00;2.30;;;14.60;1.00;;;;;;5058177;28;20385;-66
2023/03/23 09:58:55;;;;;;;6.27;2.30;;;14.60;1.00;;;;;;5065592;28;20276;-66
2023/03/23 10:01:36;;;;;;;6.35;2.05;;;15.40;1.00;;;;;;5056747;28;20387;-65
2023/03/23 10:04:24;;;;;;;6.50;2.20;;;16.00;1.00;;;;;;5056465;28;20396;-65
2023/03/23 10:06:50;;;;;;;7.25;2.65;;;15.90;1.00;;;;;;5055686;28;20187;-66
2023/03/23 10:09:20;;;;;;;7.88;2.60;;;15.30;1.00;;;;;;5041820;28;20215;-64
2023/03/23 10:12:02;;;;;;;4.15;1.90;;;15.00;1.00;;;;;;5041235;28;20261;-70
2023/03/23 10:14:43;;;;;;;6.82;2.20;;;14.90;1.00;;;;;;5044450;28;20199;-66
2023/03/23 10:17:19;;;;;;;7.75;2.30;;;14.80;1.00;;;;;;5049604;28;20175;-65
2023/03/23 10:20:14;;;;;;;7.15;2.35;;;14.90;1.00;;;;;;5059965;28;20816;-66
2023/03/23 10:22:53;;;;;;;5.57;2.25;;;15.10;1.00;;;;;;5050291;28;20201;-66
2023/03/23 10:25:23;;;;;;;5.75;2.00;;;15.20;1.00;;;;;;5059722;28;20201;-66
2023/03/23 10:28:07;;;;;;;7.00;2.10;;;15.20;1.00;;;;;;5060026;28;20188;-65
2023/03/23 10:30:56;;;;;;;6.60;2.03;;;15.10;1.00;;;;;;5059242;28;20191;-67
2023/03/23 10:33:34;;;;;;;5.07;2.00;;;14.90;1.00;;;;;;5058214;28;20298;-65
2023/03/23 10:36:03;;;;;;;6.28;2.25;;;14.80;1.00;;;;;;5041493;28;20195;-66
2023/03/23 10:38:32;;;;;;;5.70;2.20;;;14.70;1.00;;;;;;5058879;28;20195;-65
2023/03/23 10:41:24;;;;;;;8.82;2.30;;;14.80;1.00;;;;;;5058145;28;20268;-65
2023/03/23 10:43:53;;;;;;;9.32;2.38;;;14.50;1.00;;;;;;5038835;28;20219;-65
2023/03/23 10:46:25;;;;;;;7.30;2.63;;;14.60;1.00;;;;;;5041341;28;20236;-65
2023/03/23 10:48:52;;;;;;;3.15;1.35;;;14.40;1.00;;;;;;5043881;28;20272;-68
2023/03/23 10:51:23;;;;;;;1.75;1.10;;;13.90;1.00;;;;;;5042168;28;20331;-69
2023/03/23 10:53:55;;;;;;;2.40;1.17;;;13.30;1.00;;;;;;5060200;28;20218;-65
2023/03/23 10:56:28;;;;;;;2.27;1.30;;;12.90;1.00;;;;;;5057143;28;20206;-65
2023/03/23 10:58:55;;;;;;;3.70;1.30;;;12.70;1.00;;;;;;5066111;28;20198;-66
2023/03/23 11:01:31;;;;;;;3.03;1.10;;;12.50;1.00;;;;;;5058656;28;20243;-65
2023/03/23 11:03:59;;;;;;;2.33;1.23;;;12.40;1.00;;;;;;5060125;28;20183;-67
2023/03/23 11:06:29;;;;;;;6.73;3.13;;;12.30;1.00;;;;;;5058680;28;20196;-66
2023/03/23 11:09:12;;;;;;;4.17;1.27;;;12.20;1.00;;;;;;5059475;28;20542;-66
2023/03/23 11:11:54;;;;;;;3.20;1.87;;;12.30;1.00;;;;;;5041806;28;20199;-66
2023/03/23 11:14:27;;;;;;;4.03;2.23;;;12.40;1.00;;;;;;5061369;28;20195;-65
2023/03/23 11:17:01;;;;;;;4.07;1.90;;;12.30;1.00;;;;;;5024312;28;20207;-65
2023/03/23 11:19:35;;;;;;;5.07;2.23;;;12.20;1.00;;;;;;5059626;28;20189;-65
2023/03/23 11:22:04;;;;;;;4.53;1.93;;;12.20;1.00;;;;;;5056885;28;20191;-67
2023/03/23 11:24:34;;;;;;;4.33;2.10;;;12.30;1.00;;;;;;5058579;28;20336;-65
2023/03/23 11:27:03;;;;;;;3.53;1.90;;;12.70;1.00;;;;;;5057558;28;20202;-65
2023/03/23 11:29:30;;;;;;;2.70;1.73;;;13.30;1.00;;;;;;5075014;28;20215;-65
2023/03/23 11:31:59;;;;;;;3.70;1.90;;;13.40;1.00;;;;;;5034975;28;20647;-65
2023/03/23 11:34:35;;;;;;;3.23;1.90;;;13.20;1.00;;;;;;5070808;28;20183;-67
2023/03/23 11:37:15;;;;;;;4.07;2.50;;;12.80;1.00;;;;;;5045491;28;20681;-67
2023/03/23 11:39:57;;;;;;;3.37;1.70;;;12.40;1.00;;;;;;5069828;28;20662;-65
2023/03/23 11:42:32;;;;;;;3.53;2.00;;;12.60;1.00;;;;;;5061640;28;20191;-67
2023/03/23 11:45:19;;;;;;;6.00;2.10;;;12.90;1.00;;;;;;5045400;28;20201;-66
2023/03/23 11:48:03;;;;;;;4.10;3.20;;;13.20;1.00;;;;;;5061860;28;20253;-66
2023/03/23 11:50:37;;;;;;;5.10;1.80;;;13.50;1.00;;;;;;5062669;28;20686;-66
2023/03/23 11:53:13;;;;;;;3.57;1.70;;;13.20;1.00;;;;;;5061364;28;20194;-66
2023/03/23 11:55:45;;;;;;;3.37;1.83;;;12.70;1.00;;;;;;5069038;28;20205;-70
2023/03/23 11:58:12;;;;;;;4.17;1.73;;;12.60;1.00;;;;;;5042955;28;20198;-66
2023/03/23 12:01:00;;;;;;;2.83;1.50;;;12.50;1.00;;;;;;5060589;28;20249;-72
2023/03/23 12:03:46;;;;;;;3.43;1.70;;;12.50;1.00;;;;;;5053017;28;20407;-70
2023/03/23 12:06:47;;;;;;;4.50;1.83;;;12.50;1.00;;;;;;5061010;28;20191;-66
2023/03/23 12:09:39;;;;;;;4.30;1.50;;;13.00;1.00;;;;;;5028961;28;20225;-72
2023/03/23 12:12:11;;;;;;;3.63;1.37;;;13.20;1.00;;;;;;5060686;28;20190;-66
2023/03/23 12:14:55;;;;;;;5.77;1.80;;;13.20;1.00;;;;;;5070339;28;20241;-66
2023/03/23 12:17:32;;;;;;;3.93;1.70;;;12.80;1.00;;;;;;5043009;28;20202;-65
2023/03/23 12:20:21;;;;;;;3.30;1.90;;;12.60;1.00;;;;;;5061444;28;20207;-65
2023/03/23 12:22:55;;;;;;;2.07;1.50;;;12.40;1.00;;;;;;5060572;28;20257;-66
2023/03/23 12:25:47;;;;;;;4.37;1.67;;;12.10;1.00;;;;;;5061742;28;20199;-66
2023/03/23 12:28:30;;;;;;;3.67;1.40;;;12.00;1.00;;;;;;5051650;28;20286;-66
2023/03/23 12:31:14;;;;;;;5.37;1.60;;;12.10;1.00;;;;;;5067888;28;20198;-65
2023/03/23 12:34:03;;;;;;;3.47;1.57;;;12.10;1.00;;;;;;5043043;28;20401;-65
2023/03/23 12:36:35;;;;;;;5.77;1.50;;;12.20;1.00;;;;;;5060014;28;20241;-66
2023/03/23 12:39:34;;;;;;;3.53;1.43;;;12.10;1.00;;;;;;5060233;28;20281;-67
2023/03/23 12:42:17;;;;;;;2.77;1.47;;;11.90;1.00;;;;;;5015097;28;20454;-65
2023/03/23 12:44:49;;;;;;;2.23;1.53;;;12.00;4.80;;;;;;5068098;28;20188;-66
2023/03/23 12:47:31;;;;;;;6.53;2.00;;;12.00;40.60;;;;;;5059260;28;20279;-66
2023/03/23 12:50:14;;;;;;;4.57;2.13;;;12.20;76.20;;;;;;5052196;28;20210;-65
2023/03/23 12:52:58;;;;;;;2.23;1.93;;;12.10;33.10;;;;;;5041549;28;20191;-68
2023/03/23 12:55:37;;;;;;;2.23;1.80;;;12.30;14.60;;;;;;5063447;28;20646;-64
2023/03/23 12:58:09;;;;;;;1.93;1.60;;;12.20;21.20;;;;;;5042291;28;20755;-65
2023/03/23 13:01:00;;;;;;;4.17;2.10;;;12.30;23.50;;;;;;5059658;28;20183;-66
2023/03/23 13:03:42;;;;;;;5.13;2.90;;;12.40;25.20;;;;;;5022581;28;20194;-65
2023/03/23 13:06:18;;;;;;;4.87;2.50;;;12.30;33.60;;;;;;5057585;28;20192;-65
2023/03/23 13:08:51;;;;;;;3.03;2.60;;;12.10;98.20;;;;;;5049423;28;20207;-65
2023/03/23 13:11:24;;;;;;;5.13;2.90;;;11.90;99.90;;;;;;5034044;28;20191;-65
2023/03/23 13:13:56;;;;;;;5.43;3.50;;;11.90;99.90;;;;;;5059801;28;20223;-66
2023/03/23 13:16:32;;;;;;;10.20;3.97;;;11.80;99.90;;;;;;5067045;28;20221;-67
2023/03/23 13:19:26;;;;;;;7.07;4.23;;;11.70;99.90;;;;;;5042429;28;20787;-64
2023/03/23 13:21:56;;;;;;;4.73;3.70;;;11.70;99.90;;;;;;5059141;28;20195;-65
2023/03/23 13:24:27;;;;;;;5.83;4.70;;;11.90;99.90;;;;;;5043507;28;20211;-66
2023/03/23 13:26:57;;;;;;;5.23;4.33;;;12.00;99.90;;;;;;5060966;28;20206;-66
2023/03/23 13:29:24;;;;;;;4.80;4.07;;;12.20;99.90;;;;;;5041562;28;20737;-66
2023/03/23 13:31:51;;;;;;;7.23;4.40;;;12.30;99.90;;;;;;5039720;28;20188;-68
2023/03/23 13:34:22;;;;;;;4.50;4.10;;;12.30;99.90;;;;;;5056921;28;20196;-64